createdAt,value
2017-03-06T00:00:10.025Z,8.01
2017-03-06T00:01:10.014Z,8.16
2017-03-06T00:02:10.383Z,8.18
2017-03-06T00:03:10.350Z,8.11
2017-03-06T00:04:09.932Z,8.15
2017-03-06T00:05:10.370Z,8.15
2017-03-06T00:06:09.499Z,8
2017-03-06T00:07:10.271Z,8.16
2017-03-06T00:08:10.238Z,8.11
2017-03-06T00:09:09.939Z,8.12
2017-03-06T00:10:09.794Z,8.16
2017-03-06T00:11:09.800Z,8.19
2017-03-06T00:12:10.157Z,8.21
2017-03-06T00:13:10.137Z,8.24
2017-03-06T00:14:09.716Z,8.42
2017-03-06T00:15:09.295Z,8.29
2017-03-06T00:16:10.073Z,8.33
2017-03-06T00:17:09.666Z,8.32
2017-03-06T00:18:10.058Z,8.18
2017-03-06T00:19:09.224Z,8.12
2017-03-06T00:20:09.593Z,8.03
2017-03-06T00:21:09.562Z,8.12
2017-03-06T00:22:09.543Z,8.03
2017-03-06T00:23:09.624Z,7.99
2017-03-06T00:24:09.564Z,7.99
2017-03-06T00:25:09.484Z,7.9
2017-03-06T00:26:09.853Z,7.91
2017-03-06T00:27:09.439Z,7.94
2017-03-06T00:28:09.399Z,7.91
2017-03-06T00:29:09.376Z,7.96
2017-03-06T00:30:09.747Z,7.88
2017-03-06T00:31:09.725Z,7.82
2017-03-06T00:32:08.916Z,7.94
2017-03-06T00:33:09.295Z,8.06
2017-03-06T00:34:09.373Z,8.07
2017-03-06T00:35:09.254Z,7.99
2017-03-06T00:36:09.236Z,7.93
2017-03-06T00:37:09.213Z,7.94
2017-03-06T00:38:09.232Z,7.97
2017-03-06T00:39:09.154Z,8.04
2017-03-06T00:40:09.121Z,8.12
2017-03-06T00:41:09.101Z,8.11
2017-03-06T00:42:09.092Z,7.99
2017-03-06T00:43:09.458Z,8.15
2017-03-06T00:44:09.052Z,8.18
2017-03-06T00:45:09.022Z,8.33
2017-03-06T00:46:08.636Z,8.32
2017-03-06T00:47:08.595Z,8.42
2017-03-06T00:48:08.946Z,8.37
2017-03-06T00:49:09.324Z,8.45
2017-03-06T00:50:09.296Z,8.4
2017-03-06T00:51:09.436Z,8.48
2017-03-06T00:52:08.977Z,8.32
2017-03-06T00:53:08.834Z,8.4
2017-03-06T00:54:08.844Z,8.34
2017-03-06T00:55:08.787Z,8.4
2017-03-06T00:56:08.391Z,8.37
2017-03-06T00:57:09.138Z,8.39
2017-03-06T00:58:08.342Z,8.36
2017-03-06T00:59:08.723Z,8.4
2017-03-06T01:00:08.858Z,8.43
2017-03-06T01:01:08.663Z,8.34
2017-03-06T01:02:09.142Z,8.37
2017-03-06T01:03:08.651Z,8.19
2017-03-06T01:04:08.599Z,8.03
2017-03-06T01:05:08.956Z,7.97
2017-03-06T01:06:08.959Z,7.93
2017-03-06T01:07:08.981Z,8.07
2017-03-06T01:08:08.129Z,8.3
2017-03-06T01:09:08.110Z,8.22
2017-03-06T01:10:08.466Z,8
2017-03-06T01:11:08.435Z,8.12
2017-03-06T01:12:08.811Z,8.06
2017-03-06T01:13:08.800Z,8.15
2017-03-06T01:14:08.764Z,8.12
2017-03-06T01:15:08.756Z,8.09
2017-03-06T01:16:08.354Z,8.09
2017-03-06T01:17:08.303Z,8.11
2017-03-06T01:18:08.682Z,8.15
2017-03-06T01:19:08.665Z,8.21
2017-03-06T01:20:08.641Z,8.21
2017-03-06T01:21:08.621Z,8.15
2017-03-06T01:22:08.190Z,8.01
2017-03-06T01:23:07.789Z,8.12
2017-03-06T01:24:07.789Z,8.16
2017-03-06T01:25:07.747Z,8.27
2017-03-06T01:26:08.502Z,8.29
2017-03-06T01:27:08.077Z,8.32
2017-03-06T01:28:08.445Z,8.33
2017-03-06T01:29:08.075Z,8.47
2017-03-06T01:30:08.018Z,8.32
2017-03-06T01:31:08.382Z,8.16
2017-03-06T01:32:07.964Z,8.21
2017-03-06T01:33:08.345Z,8.33
2017-03-06T01:34:07.933Z,8.37
2017-03-06T01:35:08.303Z,8.33
2017-03-06T01:36:08.280Z,8.32
2017-03-06T01:37:07.514Z,8.21
2017-03-06T01:38:08.224Z,8.15
2017-03-06T01:39:07.815Z,8.33
2017-03-06T01:40:07.820Z,8.11
2017-03-06T01:41:07.769Z,7.97
2017-03-06T01:42:08.201Z,8.21
2017-03-06T01:43:07.727Z,8.22
2017-03-06T01:44:07.727Z,8.21
2017-03-06T01:45:08.088Z,8.34
2017-03-06T01:46:07.671Z,8.33
2017-03-06T01:47:07.639Z,8.25
2017-03-06T01:48:07.658Z,8.11
2017-03-06T01:49:07.985Z,8.11
2017-03-06T01:50:07.196Z,8.18
2017-03-06T01:51:07.557Z,8.16
2017-03-06T01:52:07.594Z,8.29
2017-03-06T01:53:07.928Z,8.24
2017-03-06T01:54:07.504Z,8.34
2017-03-06T01:55:07.872Z,8.34
2017-03-06T01:56:07.443Z,8.32
2017-03-06T01:57:07.822Z,8.18
2017-03-06T01:58:07.784Z,8.24
2017-03-06T01:59:07.782Z,8.21
2017-03-06T02:00:07.740Z,8.22
2017-03-06T02:01:07.770Z,8.24
2017-03-06T02:02:07.310Z,8.29
2017-03-06T02:03:07.698Z,8.33
2017-03-06T02:04:07.264Z,8.42
2017-03-06T02:05:07.248Z,8.24
2017-03-06T02:06:07.607Z,8.18
2017-03-06T02:07:07.586Z,8.03
2017-03-06T02:08:06.778Z,8.18
2017-03-06T02:09:07.157Z,8.22
2017-03-06T02:10:07.145Z,8.33
2017-03-06T02:11:07.514Z,8.4
2017-03-06T02:12:07.494Z,8.36
2017-03-06T02:13:07.063Z,8.42
2017-03-06T02:14:06.653Z,8.22
2017-03-06T02:15:07.472Z,8.27
2017-03-06T02:16:06.615Z,8.16
2017-03-06T02:17:07.461Z,8.18
2017-03-06T02:18:06.952Z,8.16
2017-03-06T02:19:06.553Z,8.15
2017-03-06T02:20:07.288Z,8.11
2017-03-06T02:21:06.887Z,8.16
2017-03-06T02:22:06.868Z,8.12
2017-03-06T02:23:06.839Z,8
2017-03-06T02:24:06.817Z,7.96
2017-03-06T02:25:07.191Z,8.11
2017-03-06T02:26:07.177Z,8.12
2017-03-06T02:27:07.146Z,8.01
2017-03-06T02:28:06.735Z,7.99
2017-03-06T02:29:07.106Z,7.86
2017-03-06T02:30:06.689Z,7.78
2017-03-06T02:31:07.055Z,7.73
2017-03-06T02:32:07.032Z,7.79
2017-03-06T02:33:06.243Z,7.9
2017-03-06T02:34:07.058Z,7.97
2017-03-06T02:35:06.602Z,7.94
2017-03-06T02:36:06.566Z,7.99
2017-03-06T02:37:06.900Z,8.09
2017-03-06T02:38:06.952Z,8.01
2017-03-06T02:39:06.490Z,8
2017-03-06T02:40:06.071Z,7.99
2017-03-06T02:41:06.861Z,8.07
2017-03-06T02:42:06.817Z,7.93
2017-03-06T02:43:06.388Z,7.9
2017-03-06T02:44:06.402Z,7.82
2017-03-06T02:45:06.757Z,7.9
2017-03-06T02:46:06.706Z,7.76
2017-03-06T02:47:05.925Z,7.9
2017-03-06T02:48:06.281Z,7.81
2017-03-06T02:49:06.654Z,7.73
2017-03-06T02:50:06.647Z,7.75
2017-03-06T02:51:06.224Z,7.72
2017-03-06T02:52:06.583Z,7.68
2017-03-06T02:53:06.183Z,7.68
2017-03-06T02:54:06.187Z,7.79
2017-03-06T02:55:06.133Z,7.75
2017-03-06T02:56:05.711Z,7.72
2017-03-06T02:57:06.475Z,7.72
2017-03-06T02:58:06.442Z,7.64
2017-03-06T02:59:06.061Z,7.79
2017-03-06T03:00:06.048Z,7.96
2017-03-06T03:01:06.368Z,7.96
2017-03-06T03:02:06.036Z,8.09
2017-03-06T03:03:05.967Z,7.94
2017-03-06T03:04:05.924Z,7.88
2017-03-06T03:05:05.915Z,7.85
2017-03-06T03:06:05.948Z,7.97
2017-03-06T03:07:05.866Z,7.86
2017-03-06T03:08:06.215Z,7.83
2017-03-06T03:09:05.798Z,7.72
2017-03-06T03:10:05.405Z,7.72
2017-03-06T03:11:05.373Z,7.85
2017-03-06T03:12:05.738Z,7.68
2017-03-06T03:13:05.762Z,7.82
2017-03-06T03:14:05.701Z,7.81
2017-03-06T03:15:05.751Z,7.86
2017-03-06T03:16:05.680Z,7.9
2017-03-06T03:17:06.041Z,7.9
2017-03-06T03:18:05.658Z,7.9
2017-03-06T03:19:06.100Z,7.85
2017-03-06T03:20:05.958Z,7.94
2017-03-06T03:21:05.548Z,7.91
2017-03-06T03:22:05.508Z,8
2017-03-06T03:23:05.907Z,7.99
2017-03-06T03:24:05.856Z,8.09
2017-03-06T03:25:05.075Z,8.09
2017-03-06T03:26:05.826Z,8.09
2017-03-06T03:27:05.415Z,7.99
2017-03-06T03:28:05.055Z,8
2017-03-06T03:29:05.389Z,8.11
2017-03-06T03:30:05.733Z,8.06
2017-03-06T03:31:05.704Z,7.86
2017-03-06T03:32:05.381Z,7.94
2017-03-06T03:33:05.664Z,7.79
2017-03-06T03:34:05.278Z,7.85
2017-03-06T03:35:05.621Z,7.67
2017-03-06T03:36:05.211Z,7.73
2017-03-06T03:37:05.187Z,7.67
2017-03-06T03:38:04.779Z,7.73
2017-03-06T03:39:04.746Z,7.88
2017-03-06T03:40:05.505Z,7.88
2017-03-06T03:41:05.481Z,7.82
2017-03-06T03:42:04.687Z,7.73
2017-03-06T03:43:05.074Z,7.67
2017-03-06T03:44:05.423Z,7.48
2017-03-06T03:45:05.011Z,7.41
2017-03-06T03:46:05.357Z,7.45
2017-03-06T03:47:05.354Z,7.59
2017-03-06T03:48:05.324Z,7.68
2017-03-06T03:49:04.971Z,7.72
2017-03-06T03:50:04.883Z,7.9
2017-03-06T03:51:04.477Z,7.91
2017-03-06T03:52:05.273Z,7.91
2017-03-06T03:53:04.925Z,7.72
2017-03-06T03:54:05.181Z,7.75
2017-03-06T03:55:05.161Z,7.72
2017-03-06T03:56:04.765Z,7.59
2017-03-06T03:57:05.120Z,7.56
2017-03-06T03:58:04.710Z,7.64
2017-03-06T03:59:04.287Z,7.78
2017-03-06T04:00:05.047Z,7.7
2017-03-06T04:01:04.286Z,7.72
2017-03-06T04:02:04.627Z,7.72
2017-03-06T04:03:04.598Z,7.57
2017-03-06T04:04:04.965Z,7.73
2017-03-06T04:05:04.934Z,7.73
2017-03-06T04:06:04.525Z,7.63
2017-03-06T04:07:04.507Z,7.56
2017-03-06T04:08:04.881Z,7.53
2017-03-06T04:09:04.063Z,7.73
2017-03-06T04:10:04.833Z,7.68
2017-03-06T04:11:04.424Z,7.9
2017-03-06T04:12:04.771Z,7.85
2017-03-06T04:13:03.985Z,7.79
2017-03-06T04:14:04.739Z,7.67
2017-03-06T04:15:04.710Z,7.73
2017-03-06T04:16:04.291Z,7.53
2017-03-06T04:17:04.677Z,7.55
2017-03-06T04:18:04.262Z,7.6
2017-03-06T04:19:04.217Z,7.55
2017-03-06T04:20:04.590Z,7.67
2017-03-06T04:21:04.572Z,7.73
2017-03-06T04:22:04.197Z,7.79
2017-03-06T04:23:03.764Z,7.64
2017-03-06T04:24:04.112Z,7.76
2017-03-06T04:25:04.468Z,7.75
2017-03-06T04:26:04.474Z,7.44
2017-03-06T04:27:04.052Z,7.29
2017-03-06T04:28:04.434Z,7.39
2017-03-06T04:29:04.433Z,7.34
2017-03-06T04:30:03.595Z,7.31
2017-03-06T04:31:04.341Z,7.2
2017-03-06T04:32:04.337Z,7.24
2017-03-06T04:33:04.328Z,7.23
2017-03-06T04:34:04.270Z,7.12
2017-03-06T04:35:04.320Z,7.12
2017-03-06T04:36:03.839Z,7.19
2017-03-06T04:37:04.338Z,7.31
2017-03-06T04:38:03.414Z,7.24
2017-03-06T04:39:03.824Z,7.16
2017-03-06T04:40:04.227Z,7.14
2017-03-06T04:41:03.361Z,7.16
2017-03-06T04:42:03.706Z,7.26
2017-03-06T04:43:03.706Z,7.11
2017-03-06T04:44:03.774Z,7.21
2017-03-06T04:45:03.753Z,7.29
2017-03-06T04:46:03.235Z,7.31
2017-03-06T04:47:04.115Z,7.41
2017-03-06T04:48:03.963Z,7.45
2017-03-06T04:49:03.302Z,7.44
2017-03-06T04:50:03.971Z,7.47
2017-03-06T04:51:03.581Z,7.67
2017-03-06T04:52:03.480Z,7.72
2017-03-06T04:53:03.920Z,7.86
2017-03-06T04:54:03.910Z,7.76
2017-03-06T04:55:03.419Z,7.7
2017-03-06T04:56:03.777Z,7.75
2017-03-06T04:57:03.387Z,7.72
2017-03-06T04:58:03.342Z,7.63
2017-03-06T04:59:03.728Z,7.64
2017-03-06T05:00:03.297Z,7.68
2017-03-06T05:01:03.689Z,7.59
2017-03-06T05:02:03.248Z,7.57
2017-03-06T05:03:03.226Z,7.42
2017-03-06T05:04:03.646Z,7.53
2017-03-06T05:05:03.211Z,7.57
2017-03-06T05:06:03.203Z,7.44
2017-03-06T05:07:03.132Z,7.52
2017-03-06T05:08:03.121Z,7.55
2017-03-06T05:09:03.481Z,7.55
2017-03-06T05:10:03.503Z,7.41
2017-03-06T05:11:03.060Z,7.48
2017-03-06T05:12:03.580Z,7.41
2017-03-06T05:13:03.001Z,7.41
2017-03-06T05:14:02.589Z,7.52
2017-03-06T05:15:02.947Z,7.67
2017-03-06T05:16:03.337Z,7.73
2017-03-06T05:17:03.291Z,7.64
2017-03-06T05:18:03.276Z,7.42
2017-03-06T05:19:03.247Z,7.42
2017-03-06T05:20:03.242Z,7.48
2017-03-06T05:21:03.234Z,7.44
2017-03-06T05:22:03.195Z,7.34
2017-03-06T05:23:03.182Z,7.38
2017-03-06T05:24:03.146Z,7.39
2017-03-06T05:25:02.732Z,7.41
2017-03-06T05:26:03.073Z,7.42
2017-03-06T05:27:03.070Z,7.45
2017-03-06T05:28:02.672Z,7.38
2017-03-06T05:29:03.129Z,7.41
2017-03-06T05:30:02.611Z,7.39
2017-03-06T05:31:02.990Z,7.31
2017-03-06T05:32:02.555Z,7.29
2017-03-06T05:33:02.979Z,7.31
2017-03-06T05:34:02.509Z,7.27
2017-03-06T05:35:02.489Z,7.27
2017-03-06T05:36:02.867Z,7.3
2017-03-06T05:37:02.453Z,7.21
2017-03-06T05:38:02.805Z,7.19
2017-03-06T05:39:02.825Z,7.16
2017-03-06T05:40:02.767Z,7.21
2017-03-06T05:41:01.979Z,7.26
2017-03-06T05:42:02.716Z,7.38
2017-03-06T05:43:02.325Z,7.47
2017-03-06T05:44:02.293Z,7.23
2017-03-06T05:45:02.264Z,7.16
2017-03-06T05:46:02.648Z,7.2
2017-03-06T05:47:01.971Z,7.3
2017-03-06T05:48:02.190Z,7.14
2017-03-06T05:49:02.572Z,7.21
2017-03-06T05:50:02.162Z,7.14
2017-03-06T05:51:02.152Z,7.12
2017-03-06T05:52:02.089Z,7.09
2017-03-06T05:53:02.475Z,7.12
2017-03-06T05:54:02.457Z,7.21
2017-03-06T05:55:02.086Z,7.34
2017-03-06T05:56:02.022Z,7.27
2017-03-06T05:57:02.366Z,7.23
2017-03-06T05:58:01.967Z,7.05
2017-03-06T05:59:01.967Z,7.06
2017-03-06T06:00:01.911Z,7.09
2017-03-06T06:01:01.902Z,7.11
2017-03-06T06:02:02.274Z,7.05
2017-03-06T06:03:02.262Z,6.96
2017-03-06T06:04:01.829Z,6.84
2017-03-06T06:05:02.181Z,6.88
2017-03-06T06:06:02.173Z,6.93
2017-03-06T06:07:01.771Z,6.96
2017-03-06T06:08:02.124Z,6.9
2017-03-06T06:09:01.730Z,6.93
2017-03-06T06:10:01.753Z,6.78
2017-03-06T06:11:02.069Z,6.83
2017-03-06T06:12:01.715Z,6.81
2017-03-06T06:13:01.638Z,6.84
2017-03-06T06:14:01.977Z,6.81
2017-03-06T06:15:01.951Z,6.88
2017-03-06T06:16:01.943Z,6.88
2017-03-06T06:17:01.913Z,6.84
2017-03-06T06:18:01.640Z,6.9
2017-03-06T06:19:01.893Z,7.02
2017-03-06T06:20:01.856Z,7.06
2017-03-06T06:21:01.446Z,7.09
2017-03-06T06:22:01.416Z,7.21
2017-03-06T06:23:01.382Z,7.24
2017-03-06T06:24:01.752Z,7.17
2017-03-06T06:25:01.333Z,7.17
2017-03-06T06:26:01.703Z,7.24
2017-03-06T06:27:01.691Z,7.3
2017-03-06T06:28:00.902Z,7.44
2017-03-06T06:29:00.870Z,7.26
2017-03-06T06:30:01.231Z,7.17
2017-03-06T06:31:01.610Z,7.05
2017-03-06T06:32:01.189Z,6.88
2017-03-06T06:33:01.543Z,6.81
2017-03-06T06:34:00.744Z,6.8
2017-03-06T06:35:01.508Z,6.81
2017-03-06T06:36:01.473Z,6.8
2017-03-06T06:37:01.098Z,6.87
2017-03-06T06:38:01.051Z,6.77
2017-03-06T06:39:01.024Z,6.87
2017-03-06T06:40:01.395Z,7.08
2017-03-06T06:41:01.356Z,7.16
2017-03-06T06:42:01.324Z,7.06
2017-03-06T06:43:00.911Z,7.05
2017-03-06T06:44:00.501Z,7.08
2017-03-06T06:45:01.252Z,7.06
2017-03-06T06:46:00.845Z,6.98
2017-03-06T06:47:00.822Z,6.96
2017-03-06T06:48:00.797Z,7.01
2017-03-06T06:49:01.170Z,6.98
2017-03-06T06:50:00.768Z,7.08
2017-03-06T06:51:00.721Z,7.12
2017-03-06T06:52:01.104Z,7.16
2017-03-06T06:53:00.297Z,7.09
2017-03-06T06:54:00.275Z,7.11
2017-03-06T06:55:01.010Z,7.29
2017-03-06T06:56:01.029Z,7.17
2017-03-06T06:57:00.590Z,7.27
2017-03-06T06:58:00.576Z,7.14
2017-03-06T06:59:00.554Z,7.12
2017-03-06T07:00:00.518Z,7.05
2017-03-06T07:01:00.133Z,7.04
2017-03-06T07:02:00.090Z,6.91
2017-03-06T07:03:00.471Z,6.87
2017-03-06T07:04:00.851Z,6.77
2017-03-06T07:05:00.011Z,6.9
2017-03-06T07:06:00.011Z,6.93
2017-03-06T07:07:00.362Z,6.96
2017-03-06T07:08:00.420Z,6.86
2017-03-06T07:09:00.315Z,6.94
2017-03-06T07:09:59.901Z,6.96
2017-03-06T07:10:59.898Z,6.96
2017-03-06T07:12:00.342Z,6.99
2017-03-06T07:13:00.609Z,6.96
2017-03-06T07:14:00.256Z,6.93
2017-03-06T07:15:00.558Z,7.06
2017-03-06T07:16:00.549Z,7.06
2017-03-06T07:17:00.135Z,6.94
2017-03-06T07:18:00.502Z,6.91
2017-03-06T07:19:00.474Z,6.98
2017-03-06T07:20:00.554Z,6.84
2017-03-06T07:21:00.028Z,6.93
2017-03-06T07:22:00.528Z,7.08
2017-03-06T07:22:59.999Z,6.87
2017-03-06T07:24:00.368Z,7.05
2017-03-06T07:24:59.968Z,6.93
2017-03-06T07:25:59.578Z,6.98
2017-03-06T07:27:00.289Z,7.01
2017-03-06T07:27:59.873Z,7.06
2017-03-06T07:28:59.868Z,7.02
2017-03-06T07:29:59.838Z,6.9
2017-03-06T07:30:59.898Z,7.11
2017-03-06T07:31:59.803Z,7.02
2017-03-06T07:32:59.802Z,7.09
2017-03-06T07:33:59.386Z,7.17
2017-03-06T07:35:00.116Z,7.11
2017-03-06T07:35:59.315Z,7.06
2017-03-06T07:36:59.677Z,7.08
2017-03-06T07:37:59.696Z,7.09
2017-03-06T07:38:59.613Z,7.09
2017-03-06T07:39:59.977Z,7.11
2017-03-06T07:41:00.003Z,6.96
2017-03-06T07:41:59.932Z,7.01
2017-03-06T07:42:59.929Z,7.06
2017-03-06T07:43:59.894Z,6.83
2017-03-06T07:44:59.626Z,6.86
2017-03-06T07:45:59.862Z,6.78
2017-03-06T07:46:59.818Z,6.9
2017-03-06T07:47:59.398Z,6.9
2017-03-06T07:48:59.446Z,6.87
2017-03-06T07:49:59.878Z,6.96
2017-03-06T07:50:59.734Z,7.02
2017-03-06T07:51:59.724Z,6.8
2017-03-06T07:52:59.676Z,6.78
2017-03-06T07:53:59.279Z,7.04
2017-03-06T07:54:59.646Z,7.05
2017-03-06T07:55:59.231Z,7.11
2017-03-06T07:56:59.593Z,7.24
2017-03-06T07:57:59.174Z,7.26
2017-03-06T07:58:59.535Z,7.06
2017-03-06T07:59:59.555Z,6.86
2017-03-06T08:00:59.522Z,7.02
2017-03-06T08:01:59.092Z,7.14
2017-03-06T08:02:58.682Z,7.19
2017-03-06T08:03:59.037Z,7.35
2017-03-06T08:04:59.431Z,7.38
2017-03-06T08:05:59.388Z,7.3
2017-03-06T08:06:59.390Z,7.44
2017-03-06T08:07:58.970Z,7.47
2017-03-06T08:08:59.328Z,7.55
2017-03-06T08:09:59.309Z,7.59
2017-03-06T08:10:58.899Z,7.44
2017-03-06T08:11:59.261Z,7.41
2017-03-06T08:12:58.835Z,7.39
2017-03-06T08:13:59.205Z,7.39
2017-03-06T08:14:58.785Z,7.23
2017-03-06T08:15:58.785Z,7.26
2017-03-06T08:16:58.751Z,7.42
2017-03-06T08:17:59.133Z,7.44
2017-03-06T08:18:58.713Z,7.31
2017-03-06T08:19:58.683Z,7.44
2017-03-06T08:20:59.052Z,7.31
2017-03-06T08:21:59.031Z,7.19
2017-03-06T08:22:58.616Z,7.19
2017-03-06T08:23:58.197Z,7.37
2017-03-06T08:24:58.280Z,7.41
2017-03-06T08:25:58.539Z,7.91
2017-03-06T08:26:58.509Z,8.39
2017-03-06T08:27:58.489Z,8.66
2017-03-06T08:28:58.467Z,8.76
2017-03-06T08:29:58.846Z,8.8
2017-03-06T08:30:58.797Z,8.47
2017-03-06T08:31:58.802Z,8.48
2017-03-06T08:32:58.765Z,8.8
2017-03-06T08:33:58.374Z,8.85
2017-03-06T08:34:58.734Z,8.29
2017-03-06T08:35:58.700Z,7.83
2017-03-06T08:36:58.691Z,7.79
2017-03-06T08:37:58.662Z,7.79
2017-03-06T08:38:58.632Z,7.78
2017-03-06T08:39:57.900Z,7.94
2017-03-06T08:40:58.600Z,7.68
2017-03-06T08:41:58.564Z,7.88
2017-03-06T08:42:58.532Z,7.78
2017-03-06T08:43:58.540Z,7.85
2017-03-06T08:44:58.533Z,7.78
2017-03-06T08:45:58.500Z,7.76
2017-03-06T08:46:58.087Z,7.64
2017-03-06T08:47:58.507Z,7.96
2017-03-06T08:48:58.096Z,7.94
2017-03-06T08:49:57.634Z,7.97
2017-03-06T08:50:57.979Z,7.76
2017-03-06T08:51:58.383Z,7.9
2017-03-06T08:52:58.034Z,7.91
2017-03-06T08:53:57.961Z,7.68
2017-03-06T08:54:57.901Z,7.49
2017-03-06T08:55:57.923Z,7.7
2017-03-06T08:56:58.283Z,7.73
2017-03-06T08:57:58.232Z,7.75
2017-03-06T08:58:58.278Z,7.64
2017-03-06T08:59:57.787Z,7.94
2017-03-06T09:00:58.200Z,7.88
2017-03-06T09:01:57.750Z,7.91
2017-03-06T09:02:58.118Z,8.11
2017-03-06T09:03:58.078Z,8.15
2017-03-06T09:04:58.128Z,8.3
2017-03-06T09:05:57.663Z,8.27
2017-03-06T09:06:57.625Z,8.47
2017-03-06T09:07:57.995Z,8.65
2017-03-06T09:08:57.977Z,8.88
2017-03-06T09:09:57.198Z,8.95
2017-03-06T09:10:57.147Z,9.14
2017-03-06T09:11:57.913Z,9
2017-03-06T09:12:57.110Z,9.02
2017-03-06T09:13:57.913Z,8.91
2017-03-06T09:14:57.836Z,8.94
2017-03-06T09:15:57.832Z,9.28
2017-03-06T09:16:57.801Z,9.38
2017-03-06T09:17:57.390Z,9.34
2017-03-06T09:18:57.377Z,9.28
2017-03-06T09:19:57.371Z,9.29
2017-03-06T09:20:57.720Z,9.4
2017-03-06T09:21:57.319Z,9.52
2017-03-06T09:22:57.687Z,9.65
2017-03-06T09:23:57.666Z,9.74
2017-03-06T09:24:57.264Z,9.9
2017-03-06T09:25:57.217Z,9.32
2017-03-06T09:26:57.597Z,9.29
2017-03-06T09:27:57.187Z,9.54
2017-03-06T09:28:57.556Z,9.62
2017-03-06T09:29:57.144Z,9.67
2017-03-06T09:30:57.518Z,9.46
2017-03-06T09:31:57.489Z,9.43
2017-03-06T09:32:57.473Z,9.4
2017-03-06T09:33:57.443Z,9.45
2017-03-06T09:34:56.672Z,9.42
2017-03-06T09:35:57.009Z,9.56
2017-03-06T09:36:56.992Z,9.54
2017-03-06T09:37:57.371Z,9.79
2017-03-06T09:38:56.949Z,9.87
2017-03-06T09:39:56.952Z,9.85
2017-03-06T09:40:57.379Z,10.08
2017-03-06T09:41:57.278Z,9.86
2017-03-06T09:42:56.869Z,9.87
2017-03-06T09:43:56.847Z,9.86
2017-03-06T09:44:56.819Z,10.03
2017-03-06T09:45:56.806Z,10.05
2017-03-06T09:46:56.807Z,9.75
2017-03-06T09:47:56.385Z,9.46
2017-03-06T09:48:56.354Z,9.22
2017-03-06T09:49:56.725Z,9.14
2017-03-06T09:50:57.093Z,9.28
2017-03-06T09:51:57.065Z,9.38
2017-03-06T09:52:57.052Z,9.28
2017-03-06T09:53:56.642Z,9.45
2017-03-06T09:54:57.012Z,9.38
2017-03-06T09:55:56.991Z,9.31
2017-03-06T09:56:56.980Z,9.16
2017-03-06T09:57:56.550Z,9.13
2017-03-06T09:58:56.940Z,8.91
2017-03-06T09:59:56.910Z,8.95
2017-03-06T10:00:56.515Z,8.93
2017-03-06T10:01:56.469Z,8.98
2017-03-06T10:02:56.848Z,8.98
2017-03-06T10:03:56.441Z,8.8
2017-03-06T10:04:56.406Z,8.9
2017-03-06T10:05:56.007Z,8.7
2017-03-06T10:06:56.395Z,8.84
2017-03-06T10:07:56.736Z,8.98
2017-03-06T10:08:56.447Z,9.09
2017-03-06T10:09:56.684Z,9.11
2017-03-06T10:10:56.343Z,9.19
2017-03-06T10:11:56.262Z,9.22
2017-03-06T10:12:56.663Z,9.22
2017-03-06T10:13:56.271Z,9.29
2017-03-06T10:14:56.611Z,9.25
2017-03-06T10:15:56.561Z,9.22
2017-03-06T10:16:56.542Z,9.29
2017-03-06T10:17:56.530Z,9.05
2017-03-06T10:18:56.520Z,9.03
2017-03-06T10:19:56.479Z,9
2017-03-06T10:20:56.095Z,8.77
2017-03-06T10:21:56.457Z,8.69
2017-03-06T10:22:56.057Z,8.67
2017-03-06T10:23:56.056Z,8.67
2017-03-06T10:24:56.375Z,8.47
2017-03-06T10:25:56.385Z,8.5
2017-03-06T10:26:55.615Z,8.58
2017-03-06T10:27:55.925Z,8.57
2017-03-06T10:28:55.943Z,8.7
2017-03-06T10:29:56.362Z,8.83
2017-03-06T10:30:56.276Z,9.02
2017-03-06T10:31:55.933Z,9.02
2017-03-06T10:32:55.831Z,9.02
2017-03-06T10:33:56.294Z,9.05
2017-03-06T10:34:56.161Z,9.22
2017-03-06T10:35:56.142Z,9.24
2017-03-06T10:36:56.119Z,9.29
2017-03-06T10:37:56.086Z,9.43
2017-03-06T10:38:56.067Z,9.32
2017-03-06T10:39:56.037Z,9.38
2017-03-06T10:40:55.260Z,9.42
2017-03-06T10:41:56.098Z,9.31
2017-03-06T10:42:55.977Z,9.29
2017-03-06T10:43:55.986Z,9.32
2017-03-06T10:44:55.968Z,9.32
2017-03-06T10:45:55.154Z,9.17
2017-03-06T10:46:55.980Z,9.09
2017-03-06T10:47:55.873Z,9.03
2017-03-06T10:48:55.502Z,9.02
2017-03-06T10:49:55.063Z,8.93
2017-03-06T10:50:55.923Z,8.8
2017-03-06T10:51:55.790Z,8.67
2017-03-06T10:52:54.991Z,8.54
2017-03-06T10:53:55.415Z,8.55
2017-03-06T10:54:55.729Z,8.5
2017-03-06T10:55:55.359Z,8.7
2017-03-06T10:56:55.797Z,8.66
2017-03-06T10:57:55.662Z,8.72
2017-03-06T10:58:55.649Z,8.57
2017-03-06T10:59:55.607Z,8.33
2017-03-06T11:00:55.217Z,8.24
2017-03-06T11:01:55.595Z,8.22
2017-03-06T11:02:55.147Z,8.15
2017-03-06T11:03:55.528Z,8.21
2017-03-06T11:04:55.591Z,8.29
2017-03-06T11:05:54.723Z,8.3
2017-03-06T11:06:55.466Z,8.15
2017-03-06T11:07:55.464Z,8.25
2017-03-06T11:08:55.040Z,8.36
2017-03-06T11:09:55.021Z,8.51
2017-03-06T11:10:54.584Z,8.54
2017-03-06T11:11:54.971Z,8.52
2017-03-06T11:12:55.327Z,8.65
2017-03-06T11:13:54.528Z,8.79
2017-03-06T11:14:54.894Z,8.93
2017-03-06T11:15:54.872Z,9.06
2017-03-06T11:16:54.859Z,9.14
2017-03-06T11:17:54.827Z,9.13
2017-03-06T11:18:55.192Z,9.19
2017-03-06T11:19:54.773Z,9.09
2017-03-06T11:20:54.769Z,8.97
2017-03-06T11:21:54.367Z,9.02
2017-03-06T11:22:55.111Z,8.97
2017-03-06T11:23:55.087Z,8.94
2017-03-06T11:24:55.074Z,9.16
2017-03-06T11:25:55.054Z,9.32
2017-03-06T11:26:55.024Z,9.22
2017-03-06T11:27:55.003Z,9.22
2017-03-06T11:28:54.604Z,9.25
2017-03-06T11:29:54.581Z,9.29
2017-03-06T11:30:54.561Z,9.14
2017-03-06T11:31:54.521Z,9.34
2017-03-06T11:32:54.900Z,9.42
2017-03-06T11:33:54.491Z,9.52
2017-03-06T11:34:54.840Z,9.71
2017-03-06T11:35:54.460Z,9.92
2017-03-06T11:36:54.824Z,9.71
2017-03-06T11:37:54.399Z,9.78
2017-03-06T11:38:54.413Z,9.78
2017-03-06T11:39:54.746Z,9.78
2017-03-06T11:40:54.749Z,9.87
2017-03-06T11:41:54.745Z,9.85
2017-03-06T11:42:54.315Z,9.6
2017-03-06T11:43:54.666Z,9.45
2017-03-06T11:44:54.257Z,9.27
2017-03-06T11:45:54.254Z,9.29
2017-03-06T11:46:53.883Z,9.31
2017-03-06T11:47:54.582Z,9.37
2017-03-06T11:48:54.183Z,9.34
2017-03-06T11:49:54.170Z,9.56
2017-03-06T11:50:54.521Z,9.65
2017-03-06T11:51:54.140Z,9.71
2017-03-06T11:52:54.079Z,9.62
2017-03-06T11:53:54.458Z,9.62
2017-03-06T11:54:54.469Z,9.85
2017-03-06T11:55:54.038Z,9.86
2017-03-06T11:56:54.007Z,9.87
2017-03-06T11:57:54.367Z,9.53
2017-03-06T11:58:53.956Z,9.6
2017-03-06T11:59:53.935Z,9.78
2017-03-06T12:00:53.916Z,9.83
2017-03-06T12:01:53.935Z,9.92
2017-03-06T12:02:54.284Z,9.95
2017-03-06T12:03:54.256Z,9.53
2017-03-06T12:04:53.825Z,9.45
2017-03-06T12:05:54.210Z,9.25
2017-03-06T12:06:53.781Z,9.43
2017-03-06T12:07:53.771Z,9.46
2017-03-06T12:08:53.762Z,9.42
2017-03-06T12:09:53.349Z,9.45
2017-03-06T12:10:53.389Z,9.47
2017-03-06T12:11:54.091Z,9.56
2017-03-06T12:12:54.051Z,9.64
2017-03-06T12:13:53.668Z,9.56
2017-03-06T12:14:54.019Z,9.46
2017-03-06T12:15:54.006Z,9.61
2017-03-06T12:16:53.983Z,9.54
2017-03-06T12:17:53.959Z,9.61
2017-03-06T12:18:53.928Z,9.68
2017-03-06T12:19:53.522Z,9.74
2017-03-06T12:20:53.884Z,9.93
2017-03-06T12:21:53.865Z,9.92
2017-03-06T12:22:53.489Z,9.82
2017-03-06T12:23:53.832Z,10
2017-03-06T12:24:53.430Z,10.16
2017-03-06T12:25:53.781Z,10.33
2017-03-06T12:26:53.381Z,10.44
2017-03-06T12:27:53.753Z,10.38
2017-03-06T12:28:53.361Z,10.69
2017-03-06T12:29:53.309Z,10.74
2017-03-06T12:30:53.340Z,11
2017-03-06T12:31:53.659Z,10.96
2017-03-06T12:32:53.647Z,11.02
2017-03-06T12:33:53.620Z,11.11
2017-03-06T12:34:53.226Z,11.13
2017-03-06T12:35:53.199Z,11.15
2017-03-06T12:36:53.167Z,11.28
2017-03-06T12:37:53.556Z,11.11
2017-03-06T12:38:53.157Z,11.17
2017-03-06T12:39:53.515Z,10.93
2017-03-06T12:40:52.710Z,10.74
2017-03-06T12:41:53.084Z,10.64
2017-03-06T12:42:53.064Z,10.34
2017-03-06T12:43:53.433Z,10.3
2017-03-06T12:44:52.623Z,10.21
2017-03-06T12:45:53.381Z,10.13
2017-03-06T12:46:52.967Z,10.19
2017-03-06T12:47:53.330Z,10.19
2017-03-06T12:48:52.538Z,10.33
2017-03-06T12:49:52.928Z,10.38
2017-03-06T12:50:53.291Z,10.28
2017-03-06T12:51:52.474Z,10.18
2017-03-06T12:52:53.239Z,10.04
2017-03-06T12:53:52.842Z,9.92
2017-03-06T12:54:52.817Z,9.95
2017-03-06T12:55:52.796Z,10.04
2017-03-06T12:56:53.186Z,10.01
2017-03-06T12:57:53.146Z,10.04
2017-03-06T12:58:52.344Z,9.85
2017-03-06T12:59:52.367Z,9.92
2017-03-06T13:00:53.088Z,10.04
2017-03-06T13:01:52.733Z,10.1
2017-03-06T13:02:52.672Z,10.05
2017-03-06T13:03:53.113Z,9.87
2017-03-06T13:04:52.609Z,9.86
2017-03-06T13:05:52.649Z,9.74
2017-03-06T13:06:52.563Z,9.8
2017-03-06T13:07:52.160Z,9.9
2017-03-06T13:08:52.911Z,9.87
2017-03-06T13:09:52.989Z,9.92
2017-03-06T13:10:52.879Z,9.8
2017-03-06T13:11:52.959Z,9.8
2017-03-06T13:12:52.839Z,9.75
2017-03-06T13:13:52.898Z,9.83
2017-03-06T13:14:52.796Z,9.86
2017-03-06T13:15:52.872Z,9.89
2017-03-06T13:16:52.356Z,9.93
2017-03-06T13:17:52.776Z,10.05
2017-03-06T13:18:52.322Z,10.13
2017-03-06T13:19:52.796Z,10.13